Time;durP1;ratioP1;P1;durP2;ratioP2;P2;SDS_P1;SDS_P2;PMS_P1;PMS_P2;Temp;Humidity;BMP_temperature;BMP_pressure;BME280_temperature;BME280_humidity;BME280_pressure;Samples;Min_cycle;Max_cycle;Signal;HPM_P1;HPM_P2
2022/07/20 00:02:10;;;;;;;3.72;2.38;;;23.30;53.10;;;;;;5010841;28;20037;-76
2022/07/20 00:04:36;;;;;;;4.50;2.38;;;23.20;53.40;;;;;;5011154;28;20368;-76
2022/07/20 00:07:02;;;;;;;5.63;2.75;;;23.10;53.20;;;;;;5011832;28;20041;-75
2022/07/20 00:12:13;;;;;;;6.47;3.08;;;23.00;53.70;;;;;;5004426;28;20041;-75
2022/07/20 00:14:39;;;;;;;6.03;2.90;;;23.00;54.40;;;;;;5012654;28;20026;-75
2022/07/20 00:17:06;;;;;;;10.70;3.92;;;22.90;53.80;;;;;;5007545;28;20037;-75
2022/07/20 00:19:32;;;;;;;3.88;2.40;;;22.80;53.90;;;;;;5007932;28;20359;-75
2022/07/20 00:21:59;;;;;;;6.63;2.85;;;22.70;54.40;;;;;;5006304;28;20030;-75
2022/07/20 00:24:25;;;;;;;4.40;2.53;;;22.60;54.50;;;;;;5003455;28;20041;-76
2022/07/20 00:26:51;;;;;;;6.85;3.38;;;22.50;54.40;;;;;;5012823;28;20046;-75
2022/07/20 00:29:17;;;;;;;4.90;2.63;;;22.40;54.90;;;;;;5011443;28;20034;-76
2022/07/20 00:31:44;;;;;;;5.43;2.67;;;22.30;55.20;;;;;;5006203;28;20459;-78
2022/07/20 00:34:10;;;;;;;6.05;3.75;;;22.30;55.50;;;;;;5006006;28;20042;-76
2022/07/20 00:36:36;;;;;;;4.72;2.75;;;22.30;55.30;;;;;;5009428;28;20029;-75
2022/07/20 00:39:02;;;;;;;4.13;2.25;;;22.20;55.70;;;;;;5011300;28;20030;-76
2022/07/20 00:41:29;;;;;;;7.18;2.97;;;22.10;55.50;;;;;;5010806;28;20021;-76
2022/07/20 00:44:02;;;;;;;6.13;3.50;;;22.00;55.80;;;;;;5010928;28;20383;-75
2022/07/20 00:46:30;;;;;;;6.63;2.60;;;21.90;56.20;;;;;;5006468;28;20398;-76
2022/07/20 00:48:56;;;;;;;5.75;2.97;;;21.90;56.30;;;;;;5010953;28;20041;-76
2022/07/20 00:51:23;;;;;;;6.57;2.78;;;21.90;56.40;;;;;;5010816;28;20443;-78
2022/07/20 00:53:51;;;;;;;6.10;3.13;;;21.80;57.00;;;;;;5006892;28;20050;-75
2022/07/20 00:56:19;;;;;;;5.47;2.42;;;21.70;57.00;;;;;;4992928;28;20041;-76
2022/07/20 00:58:46;;;;;;;5.40;2.75;;;21.70;57.50;;;;;;5005595;28;20036;-75
2022/07/20 01:01:13;;;;;;;4.82;2.53;;;21.60;57.90;;;;;;5004225;28;20451;-75
2022/07/20 01:03:40;;;;;;;5.22;2.78;;;21.60;57.80;;;;;;5004216;28;20460;-77
2022/07/20 01:06:07;;;;;;;4.20;1.92;;;21.60;58.10;;;;;;5007487;28;20053;-75
2022/07/20 01:08:33;;;;;;;6.18;2.92;;;21.50;58.10;;;;;;5004685;28;20049;-76
2022/07/20 01:11:01;;;;;;;4.35;2.78;;;21.40;58.80;;;;;;5011798;28;20105;-75
2022/07/20 01:13:28;;;;;;;6.35;3.03;;;21.40;59.30;;;;;;5008662;28;20041;-77
2022/07/20 01:15:54;;;;;;;7.65;2.95;;;21.40;59.20;;;;;;4995195;28;20049;-75
2022/07/20 01:18:20;;;;;;;4.93;2.60;;;21.40;59.30;;;;;;5007319;28;20392;-76
2022/07/20 01:20:48;;;;;;;5.82;3.08;;;21.40;59.50;;;;;;5009094;28;20033;-76
2022/07/20 01:23:15;;;;;;;8.77;3.28;;;21.40;60.30;;;;;;5004445;28;20038;-77
2022/07/20 01:25:42;;;;;;;5.53;3.30;;;21.30;60.00;;;;;;5012742;28;20045;-76
2022/07/20 01:28:12;;;;;;;5.75;2.88;;;21.30;60.70;;;;;;5011533;28;20053;-76
2022/07/20 01:30:39;;;;;;;5.82;2.53;;;21.30;60.90;;;;;;5014188;28;20053;-76
2022/07/20 01:33:07;;;;;;;6.30;2.65;;;21.20;60.90;;;;;;5002490;28;20030;-77
2022/07/20 01:35:33;;;;;;;5.30;3.25;;;21.20;61.40;;;;;;5005593;28;20395;-76
2022/07/20 01:37:59;;;;;;;6.05;3.08;;;21.20;61.10;;;;;;5006141;28;20036;-75
2022/07/20 01:40:25;;;;;;;5.30;2.65;;;21.10;61.30;;;;;;5008344;28;20041;-76
2022/07/20 01:42:51;;;;;;;4.20;2.60;;;21.10;61.30;;;;;;5006894;28;20038;-77
2022/07/20 01:45:18;;;;;;;5.43;3.08;;;21.10;61.40;;;;;;5011415;28;20041;-76
2022/07/20 01:47:44;;;;;;;4.82;2.70;;;21.10;61.30;;;;;;5001839;28;20042;-76
2022/07/20 01:50:11;;;;;;;5.55;2.97;;;21.00;61.40;;;;;;4993468;28;20387;-76
2022/07/20 01:52:37;;;;;;;6.68;3.20;;;20.90;61.50;;;;;;5008963;28;20030;-76
2022/07/20 01:55:04;;;;;;;6.05;2.78;;;20.80;61.80;;;;;;5000587;28;20673;-76
2022/07/20 01:57:31;;;;;;;5.88;3.15;;;20.70;61.60;;;;;;5008051;28;20048;-76
2022/07/20 01:59:57;;;;;;;5.78;2.63;;;20.70;61.80;;;;;;5004149;28;20048;-77
2022/07/20 02:02:23;;;;;;;8.60;3.70;;;20.60;62.00;;;;;;5009123;28;20038;-78
2022/07/20 02:04:49;;;;;;;8.55;3.20;;;20.60;62.20;;;;;;5007951;28;20030;-77
2022/07/20 02:07:15;;;;;;;8.05;3.15;;;20.50;63.10;;;;;;5007905;28;20037;-77
2022/07/20 02:09:42;;;;;;;6.05;2.95;;;20.50;63.20;;;;;;5007032;28;20030;-77
2022/07/20 02:12:08;;;;;;;8.13;3.25;;;20.50;63.50;;;;;;5002366;28;20042;-76
2022/07/20 02:14:34;;;;;;;8.10;3.40;;;20.40;66.10;;;;;;5001366;28;20044;-77
2022/07/20 02:17:00;;;;;;;4.97;3.85;;;20.40;65.30;;;;;;5007290;28;20042;-77
2022/07/20 02:19:26;;;;;;;6.82;3.30;;;20.20;65.70;;;;;;5010044;28;20467;-78
2022/07/20 02:21:53;;;;;;;5.03;2.92;;;20.00;66.60;;;;;;5003613;28;20062;-78
2022/07/20 02:24:19;;;;;;;4.80;3.50;;;20.00;67.80;;;;;;5006812;28;20463;-77
2022/07/20 02:26:45;;;;;;;5.22;3.35;;;20.00;68.50;;;;;;5006872;28;20045;-77
2022/07/20 02:29:11;;;;;;;6.03;3.20;;;19.90;69.00;;;;;;5005093;28;20045;-77
2022/07/20 02:31:37;;;;;;;6.78;3.00;;;19.90;72.00;;;;;;5005239;28;20038;-76
2022/07/20 02:34:03;;;;;;;11.35;3.72;;;20.00;70.60;;;;;;5001780;28;20058;-77
2022/07/20 02:36:30;;;;;;;9.10;4.07;;;19.90;68.50;;;;;;5004849;28;20388;-76
2022/07/20 02:38:56;;;;;;;7.60;3.63;;;19.80;69.10;;;;;;5006304;28;20045;-76
2022/07/20 02:41:22;;;;;;;6.63;3.50;;;19.90;71.30;;;;;;5010991;28;20423;-79
2022/07/20 02:43:48;;;;;;;4.10;3.30;;;19.90;70.10;;;;;;5010257;28;20064;-77
2022/07/20 02:46:15;;;;;;;5.13;3.80;;;19.90;71.30;;;;;;5006966;28;20041;-77
2022/07/20 02:48:41;;;;;;;8.15;3.58;;;19.90;71.30;;;;;;5009860;28;20038;-76
2022/07/20 02:51:07;;;;;;;6.28;3.42;;;19.90;70.20;;;;;;5010412;28;20026;-77
2022/07/20 02:53:33;;;;;;;7.18;3.63;;;19.80;72.10;;;;;;5003108;28;20053;-77
2022/07/20 02:55:59;;;;;;;8.40;3.78;;;19.70;72.50;;;;;;5008542;28;20035;-76
2022/07/20 02:58:26;;;;;;;7.68;3.65;;;19.70;71.60;;;;;;5007974;28;20041;-76
2022/07/20 03:00:52;;;;;;;6.90;3.55;;;19.70;73.20;;;;;;5005235;28;20038;-77
2022/07/20 03:03:18;;;;;;;8.43;3.70;;;19.60;72.90;;;;;;5003164;28;20048;-76
2022/07/20 03:05:44;;;;;;;5.32;3.55;;;19.60;73.80;;;;;;5005862;28;20030;-76
2022/07/20 03:08:10;;;;;;;7.00;3.90;;;19.60;75.20;;;;;;5007090;28;20472;-77
2022/07/20 03:10:37;;;;;;;8.38;3.85;;;19.50;75.90;;;;;;5007491;28;20030;-76
2022/07/20 03:13:03;;;;;;;7.75;3.50;;;19.40;76.60;;;;;;5007498;28;20463;-76
2022/07/20 03:15:30;;;;;;;9.40;3.40;;;19.40;78.00;;;;;;5006304;28;20506;-76
2022/07/20 03:17:56;;;;;;;4.75;3.50;;;19.40;77.60;;;;;;5009629;28;20037;-76
2022/07/20 03:20:28;;;;;;;4.95;3.42;;;19.40;78.70;;;;;;5013119;28;20044;-76
2022/07/20 03:22:55;;;;;;;5.70;3.55;;;19.40;79.10;;;;;;5006792;28;20034;-77
2022/07/20 03:25:22;;;;;;;7.32;3.30;;;19.30;78.90;;;;;;5008251;28;20037;-76
2022/07/20 03:27:53;;;;;;;5.68;3.63;;;19.30;79.30;;;;;;5025463;28;20002;-76
2022/07/20 03:30:19;;;;;;;10.32;4.10;;;19.30;80.50;;;;;;5025417;28;20042;-77
2022/07/20 03:32:45;;;;;;;8.57;4.20;;;19.30;80.60;;;;;;5032727;28;20018;-77
2022/07/20 03:35:12;;;;;;;6.93;3.45;;;19.20;81.80;;;;;;5031252;28;20038;-77
2022/07/20 03:37:38;;;;;;;5.80;3.50;;;19.30;81.50;;;;;;5019101;28;20025;-76
2022/07/20 03:40:05;;;;;;;7.35;3.67;;;19.40;80.80;;;;;;5015270;28;20026;-80
2022/07/20 03:42:33;;;;;;;11.25;4.35;;;19.30;81.10;;;;;;5011881;28;20036;-76
2022/07/20 03:44:59;;;;;;;5.55;3.50;;;19.30;82.10;;;;;;5011784;28;20038;-76
2022/07/20 03:47:26;;;;;;;7.70;3.90;;;19.30;81.70;;;;;;5008606;28;20033;-76
2022/07/20 03:49:52;;;;;;;8.57;3.85;;;19.30;81.60;;;;;;5012747;28;20049;-76
2022/07/20 03:52:19;;;;;;;7.60;3.70;;;19.30;82.60;;;;;;5008783;28;20476;-76
2022/07/20 03:54:46;;;;;;;6.85;4.25;;;19.30;83.20;;;;;;5008126;28;20034;-76
2022/07/20 03:57:12;;;;;;;5.40;3.22;;;19.30;82.80;;;;;;5004379;28;20033;-75
2022/07/20 03:59:38;;;;;;;5.50;3.63;;;19.30;82.80;;;;;;5010131;28;20026;-77
2022/07/20 04:02:05;;;;;;;4.15;2.85;;;19.30;84.20;;;;;;5005358;28;20046;-80
2022/07/20 04:04:31;;;;;;;6.15;3.67;;;19.40;83.60;;;;;;5008215;28;20054;-77
2022/07/20 04:06:58;;;;;;;10.48;4.85;;;19.40;83.10;;;;;;5010498;28;20022;-78
2022/07/20 04:12:14;;;;;;;7.55;3.60;;;19.20;84.50;;;;;;5002819;28;20037;-77
2022/07/20 04:14:41;;;;;;;8.02;3.78;;;19.20;85.00;;;;;;5009875;28;20038;-77
2022/07/20 04:17:07;;;;;;;10.55;3.58;;;19.20;85.10;;;;;;5004636;28;20039;-79
2022/07/20 04:19:35;;;;;;;10.20;4.28;;;19.20;85.10;;;;;;5004631;28;20038;-77
2022/07/20 04:22:01;;;;;;;6.20;3.70;;;19.20;85.40;;;;;;5005047;28;20042;-78
2022/07/20 04:24:28;;;;;;;7.28;4.60;;;19.20;86.20;;;;;;5006770;28;20045;-79
2022/07/20 04:26:54;;;;;;;4.53;3.50;;;19.20;87.00;;;;;;5014936;28;20056;-78
2022/07/20 04:29:21;;;;;;;12.75;4.72;;;19.30;87.90;;;;;;5001966;28;20026;-78
2022/07/20 04:31:48;;;;;;;10.45;4.57;;;19.40;89.00;;;;;;5010219;28;20029;-79
2022/07/20 04:34:14;;;;;;;6.25;3.60;;;19.60;88.60;;;;;;5009546;28;20046;-78
2022/07/20 04:36:40;;;;;;;6.35;3.70;;;19.70;86.80;;;;;;5007571;28;20042;-80
2022/07/20 04:39:06;;;;;;;6.22;3.13;;;20.30;87.60;;;;;;5007778;28;20042;-79
2022/07/20 04:41:32;;;;;;;9.00;4.50;;;21.50;80.30;;;;;;5005091;28;20034;-79
2022/07/20 04:43:59;;;;;;;11.90;3.17;;;22.40;73.70;;;;;;5004556;28;20038;-79
2022/07/20 04:46:25;;;;;;;9.75;3.63;;;23.10;69.00;;;;;;5007947;28;20471;-78
2022/07/20 04:48:52;;;;;;;9.45;4.35;;;24.30;66.20;;;;;;5007246;28;20026;-78
2022/07/20 04:51:18;;;;;;;9.00;3.60;;;24.90;61.60;;;;;;5005061;28;20084;-80
2022/07/20 04:53:44;;;;;;;11.05;3.60;;;25.80;61.10;;;;;;5012747;28;20041;-79
2022/07/20 04:56:10;;;;;;;5.68;3.78;;;27.10;57.80;;;;;;5009054;28;20041;-79
2022/07/20 04:58:36;;;;;;;9.85;4.25;;;27.90;54.60;;;;;;5006525;28;20384;-79
2022/07/20 05:01:03;;;;;;;6.03;3.15;;;28.00;54.10;;;;;;5010180;28;20040;-79
2022/07/20 05:03:29;;;;;;;8.30;3.58;;;28.60;53.50;;;;;;5003175;28;20052;-79
2022/07/20 05:05:55;;;;;;;10.68;3.83;;;29.50;53.10;;;;;;5008354;28;20041;-79
2022/07/20 05:08:21;;;;;;;5.03;3.67;;;29.60;50.70;;;;;;5009466;28;20253;-79
2022/07/20 05:10:47;;;;;;;5.85;3.00;;;29.50;51.30;;;;;;5008871;28;20039;-78
2022/07/20 05:13:13;;;;;;;6.30;3.38;;;29.40;50.40;;;;;;5005666;28;20038;-79
2022/07/20 05:15:40;;;;;;;8.30;3.58;;;29.10;50.80;;;;;;5009388;28;20037;-79
2022/07/20 05:18:06;;;;;;;11.32;3.58;;;29.20;51.00;;;;;;5005540;28;20034;-81
2022/07/20 05:20:32;;;;;;;9.00;3.60;;;29.30;51.10;;;;;;5003686;28;20042;-77
2022/07/20 05:22:58;;;;;;;10.77;3.40;;;29.00;50.50;;;;;;5006272;28;20030;-76
2022/07/20 05:25:24;;;;;;;12.15;3.63;;;28.20;51.70;;;;;;5005941;28;20037;-77
2022/07/20 05:27:51;;;;;;;12.00;3.53;;;27.20;53.10;;;;;;4996606;28;20493;-77
2022/07/20 05:30:17;;;;;;;10.05;3.60;;;26.30;54.70;;;;;;5009611;28;20064;-77
2022/07/20 05:32:43;;;;;;;7.75;3.85;;;25.90;56.40;;;;;;5008731;28;20049;-77
2022/07/20 05:35:09;;;;;;;8.18;3.42;;;26.30;55.70;;;;;;5011897;28;20474;-80
2022/07/20 05:37:36;;;;;;;7.65;3.50;;;27.00;54.20;;;;;;5013846;28;20041;-76
2022/07/20 05:40:02;;;;;;;15.30;3.85;;;27.80;53.60;;;;;;5006002;28;20038;-77
2022/07/20 05:42:28;;;;;;;13.05;3.95;;;28.00;52.30;;;;;;5002252;28;20045;-76
2022/07/20 05:44:55;;;;;;;9.75;3.67;;;28.30;51.60;;;;;;5015083;28;20034;-73
2022/07/20 05:47:22;;;;;;;10.07;3.33;;;28.40;51.40;;;;;;5007108;28;20490;-73
2022/07/20 05:49:48;;;;;;;11.85;3.55;;;29.10;50.30;;;;;;5001678;28;20038;-73
2022/07/20 05:52:15;;;;;;;8.45;3.95;;;29.30;49.30;;;;;;5007252;28;20042;-73
2022/07/20 05:54:41;;;;;;;12.05;3.50;;;29.30;48.30;;;;;;5009328;28;20045;-73
2022/07/20 05:57:07;;;;;;;14.23;3.85;;;28.60;49.80;;;;;;5011132;28;20030;-73
2022/07/20 05:59:33;;;;;;;5.95;3.05;;;28.60;49.70;;;;;;5009257;28;20049;-73
2022/07/20 06:02:00;;;;;;;7.63;3.53;;;28.80;49.10;;;;;;5009746;28;20038;-73
2022/07/20 06:04:26;;;;;;;10.98;3.90;;;28.70;48.80;;;;;;5009445;28;20034;-73
2022/07/20 06:06:52;;;;;;;5.57;3.70;;;28.40;49.50;;;;;;5005911;28;20034;-73
2022/07/20 06:09:18;;;;;;;6.45;3.80;;;29.30;50.00;;;;;;5004570;28;20029;-74
2022/07/20 06:11:44;;;;;;;13.13;3.53;;;30.10;47.40;;;;;;5011034;28;20037;-73
2022/07/20 06:14:10;;;;;;;7.70;4.07;;;30.10;47.70;;;;;;5009792;28;20041;-74
2022/07/20 06:16:37;;;;;;;8.90;3.60;;;30.00;47.40;;;;;;5003148;28;20034;-73
2022/07/20 06:19:03;;;;;;;6.35;3.53;;;29.90;47.60;;;;;;5005592;28;20042;-73
2022/07/20 06:21:29;;;;;;;10.10;3.90;;;29.60;47.90;;;;;;5010661;28;20030;-73
2022/07/20 06:23:55;;;;;;;6.97;4.13;;;29.20;48.50;;;;;;5009186;28;20042;-74
2022/07/20 06:26:22;;;;;;;5.78;3.72;;;29.70;48.50;;;;;;5005686;28;20041;-74
2022/07/20 06:28:49;;;;;;;13.15;4.18;;;30.90;47.50;;;;;;5008210;28;20045;-73
2022/07/20 06:31:15;;;;;;;5.13;3.25;;;31.30;46.50;;;;;;5005662;28;20053;-74
2022/07/20 06:33:42;;;;;;;7.03;3.58;;;31.60;45.50;;;;;;5008272;28;20022;-73
2022/07/20 06:36:08;;;;;;;6.28;3.25;;;31.90;45.80;;;;;;5005755;28;20467;-74
2022/07/20 06:38:35;;;;;;;9.75;4.15;;;31.90;45.30;;;;;;5000700;28;20022;-75
2022/07/20 06:41:01;;;;;;;10.43;4.35;;;31.00;46.30;;;;;;5006666;28;20053;-74
2022/07/20 06:43:27;;;;;;;8.38;3.78;;;31.60;47.50;;;;;;5003905;28;20033;-74
2022/07/20 06:45:53;;;;;;;7.35;3.90;;;31.70;45.50;;;;;;5005235;28;20052;-74
2022/07/20 06:48:20;;;;;;;5.78;3.47;;;31.20;48.00;;;;;;5008499;28;20026;-76
2022/07/20 06:50:48;;;;;;;10.57;3.58;;;31.20;46.10;;;;;;5008633;28;20038;-74
2022/07/20 06:53:15;;;;;;;11.02;4.32;;;30.70;46.60;;;;;;5004250;28;20383;-75
2022/07/20 06:55:41;;;;;;;17.67;5.97;;;31.10;45.90;;;;;;5010186;28;20033;-74
2022/07/20 06:58:08;;;;;;;10.52;4.35;;;30.00;46.80;;;;;;5014165;28;20030;-79
2022/07/20 07:00:34;;;;;;;10.65;4.68;;;30.10;47.80;;;;;;5009231;28;20033;-73
2022/07/20 07:03:00;;;;;;;10.82;4.53;;;31.00;46.50;;;;;;5011841;28;20386;-73
2022/07/20 07:05:27;;;;;;;6.45;3.78;;;31.40;45.40;;;;;;5005218;28;20202;-73
2022/07/20 07:07:53;;;;;;;14.73;4.82;;;31.50;45.10;;;;;;5014116;28;20089;-76
2022/07/20 07:10:19;;;;;;;10.40;4.63;;;31.40;45.10;;;;;;5007828;28;20037;-73
2022/07/20 07:12:45;;;;;;;6.55;3.20;;;30.90;45.80;;;;;;5010475;28;20038;-73
2022/07/20 07:15:12;;;;;;;12.35;5.18;;;31.60;45.80;;;;;;5012835;28;20502;-74
2022/07/20 07:17:38;;;;;;;9.65;4.70;;;31.40;44.60;;;;;;5004010;28;20034;-73
2022/07/20 07:20:05;;;;;;;6.65;4.07;;;31.70;44.60;;;;;;5007730;28;20375;-73
2022/07/20 07:22:32;;;;;;;10.02;4.72;;;32.50;44.20;;;;;;5013201;28;20041;-74
2022/07/20 07:24:58;;;;;;;11.75;4.97;;;31.60;45.10;;;;;;5008402;28;20360;-73
2022/07/20 07:27:25;;;;;;;13.77;4.40;;;31.80;45.20;;;;;;5011028;28;20038;-77
2022/07/20 07:29:51;;;;;;;9.98;4.20;;;31.70;44.50;;;;;;5010973;28;20060;-73
2022/07/20 07:32:17;;;;;;;10.48;4.75;;;31.40;46.10;;;;;;5009154;28;20045;-73
2022/07/20 07:34:43;;;;;;;8.45;3.88;;;32.10;43.80;;;;;;5009031;28;20034;-73
2022/07/20 07:37:09;;;;;;;10.75;3.95;;;32.80;44.40;;;;;;5007425;28;20030;-73
2022/07/20 07:39:36;;;;;;;10.05;4.25;;;33.20;43.30;;;;;;5012434;28;20045;-72
2022/07/20 07:42:03;;;;;;;10.70;4.15;;;33.40;42.50;;;;;;5013588;28;20046;-72
2022/07/20 07:44:29;;;;;;;16.00;4.78;;;33.40;43.10;;;;;;5009893;28;20041;-73
2022/07/20 07:46:55;;;;;;;11.45;3.75;;;33.20;43.20;;;;;;5009305;28;20390;-76
2022/07/20 07:49:22;;;;;;;8.75;3.53;;;32.70;43.40;;;;;;5007925;28;20030;-73
2022/07/20 07:51:48;;;;;;;16.27;4.55;;;32.90;43.90;;;;;;5011297;28;20046;-73
2022/07/20 07:54:14;;;;;;;10.65;3.70;;;32.40;43.80;;;;;;5008535;28;20041;-73
2022/07/20 07:56:41;;;;;;;14.00;3.95;;;32.60;44.70;;;;;;5010626;28;20051;-75
2022/07/20 07:59:07;;;;;;;14.60;4.53;;;33.30;44.10;;;;;;5006569;28;20034;-73
2022/07/20 08:01:34;;;;;;;10.63;4.43;;;33.90;43.90;;;;;;5009029;28;20034;-73
2022/07/20 08:04:02;;;;;;;11.02;4.15;;;34.40;43.00;;;;;;5010704;28;20049;-73
2022/07/20 08:06:28;;;;;;;9.52;3.28;;;33.90;42.30;;;;;;5006725;28;20491;-73
2022/07/20 08:08:54;;;;;;;10.02;3.75;;;33.50;42.80;;;;;;5009258;28;20041;-78
2022/07/20 08:11:20;;;;;;;8.15;3.60;;;34.00;42.70;;;;;;5009553;28;20444;-73
2022/07/20 08:13:47;;;;;;;7.40;3.75;;;34.30;42.40;;;;;;5004311;28;20022;-73
2022/07/20 08:16:13;;;;;;;9.35;3.55;;;34.30;42.20;;;;;;5007003;28;20436;-72
2022/07/20 08:18:40;;;;;;;6.88;3.55;;;34.40;42.60;;;;;;5003152;28;20029;-74
2022/07/20 08:21:06;;;;;;;9.00;3.90;;;34.60;43.10;;;;;;5004359;28;20395;-72
2022/07/20 08:23:32;;;;;;;12.55;3.50;;;35.00;42.70;;;;;;5004916;28;20041;-72
2022/07/20 08:25:58;;;;;;;7.43;3.70;;;34.80;42.40;;;;;;5012755;28;20038;-73
2022/07/20 08:28:25;;;;;;;6.65;3.58;;;34.50;40.60;;;;;;5004668;28;20041;-73
2022/07/20 08:30:52;;;;;;;7.30;3.00;;;34.20;40.90;;;;;;5011274;28;20052;-72
2022/07/20 08:33:19;;;;;;;10.18;3.22;;;34.30;41.00;;;;;;5009029;28;20380;-73
2022/07/20 08:35:46;;;;;;;5.35;3.42;;;34.40;41.50;;;;;;5013612;28;20045;-73
2022/07/20 08:38:13;;;;;;;3.78;2.78;;;35.10;41.00;;;;;;5011508;28;20037;-76
2022/07/20 08:40:39;;;;;;;8.10;4.13;;;35.50;40.70;;;;;;5012007;28;20036;-72
2022/07/20 08:43:06;;;;;;;6.30;3.78;;;35.90;40.50;;;;;;5010079;28;20033;-73
2022/07/20 08:45:34;;;;;;;4.85;2.88;;;35.80;40.20;;;;;;5003319;28;20034;-73
2022/07/20 08:48:03;;;;;;;8.98;3.33;;;35.30;40.20;;;;;;5011325;28;20029;-74
2022/07/20 08:50:31;;;;;;;4.05;3.35;;;34.60;40.70;;;;;;5011081;28;20038;-74
2022/07/20 08:52:58;;;;;;;7.32;3.65;;;34.50;40.70;;;;;;5008732;28;20053;-73
2022/07/20 08:55:25;;;;;;;4.50;3.38;;;34.40;40.80;;;;;;5009106;28;20041;-74
2022/07/20 08:57:51;;;;;;;10.38;4.55;;;34.80;41.20;;;;;;5004046;28;20034;-74
2022/07/20 09:00:18;;;;;;;8.52;3.83;;;34.90;40.60;;;;;;5006763;28;20034;-74
2022/07/20 09:02:54;;;;;;;6.68;4.00;;;34.60;41.30;;;;;;5000433;28;20030;-74
2022/07/20 09:05:22;;;;;;;10.02;3.78;;;34.40;41.00;;;;;;5005968;28;20038;-74
2022/07/20 09:07:50;;;;;;;12.50;4.55;;;34.40;41.60;;;;;;5013035;28;20352;-73
2022/07/20 09:10:18;;;;;;;8.52;3.83;;;34.80;40.90;;;;;;5004573;28;20030;-74
2022/07/20 09:13:02;;;;;;;10.48;4.38;;;35.00;41.20;;;;;;5012989;28;20372;-73
2022/07/20 09:15:45;;;;;;;7.90;4.03;;;34.90;40.70;;;;;;5009211;28;20259;-73
2022/07/20 09:18:19;;;;;;;7.25;4.47;;;35.10;41.10;;;;;;5006290;28;20029;-78
2022/07/20 09:20:49;;;;;;;8.38;4.20;;;35.70;39.80;;;;;;5006856;28;20034;-73
2022/07/20 09:23:22;;;;;;;8.23;4.45;;;35.50;40.70;;;;;;5009600;28;20030;-73
2022/07/20 09:25:58;;;;;;;4.50;4.07;;;35.60;40.60;;;;;;5012352;28;20479;-73
2022/07/20 09:28:51;;;;;;;6.72;4.00;;;35.40;41.80;;;;;;5001916;28;20427;-76
2022/07/20 09:31:33;;;;;;;6.85;4.15;;;35.40;41.20;;;;;;5007475;28;20065;-73
2022/07/20 09:34:01;;;;;;;6.43;4.32;;;35.50;41.90;;;;;;5003170;28;20045;-73
2022/07/20 09:36:31;;;;;;;7.78;4.57;;;34.90;41.70;;;;;;5006011;28;20232;-73
2022/07/20 09:39:09;;;;;;;6.88;4.00;;;34.80;41.70;;;;;;5010258;28;20029;-74
2022/07/20 09:41:39;;;;;;;10.05;4.97;;;35.40;40.30;;;;;;5007836;28;20030;-74
2022/07/20 09:44:06;;;;;;;6.05;4.00;;;34.90;40.90;;;;;;5006070;28;20041;-74
2022/07/20 09:46:36;;;;;;;8.88;4.20;;;34.40;40.80;;;;;;4998960;28;20034;-74
2022/07/20 09:49:05;;;;;;;7.95;3.63;;;34.00;41.10;;;;;;5003323;28;20045;-75
2022/07/20 09:51:40;;;;;;;6.07;3.55;;;34.60;40.40;;;;;;5005446;28;20045;-74
2022/07/20 09:54:14;;;;;;;6.15;3.70;;;34.50;41.00;;;;;;5005706;28;20026;-74
2022/07/20 09:56:46;;;;;;;7.63;4.18;;;35.10;40.80;;;;;;5004981;28;20030;-74
2022/07/20 09:59:13;;;;;;;7.80;4.47;;;35.60;40.20;;;;;;5005766;28;20365;-74
2022/07/20 10:01:42;;;;;;;10.93;5.18;;;35.30;40.80;;;;;;5006646;28;20376;-73
2022/07/20 10:04:11;;;;;;;8.90;5.22;;;35.00;40.30;;;;;;5008020;28;20034;-79
2022/07/20 10:06:39;;;;;;;7.90;4.72;;;34.90;41.10;;;;;;5006400;28;20041;-74
2022/07/20 10:09:06;;;;;;;8.77;5.57;;;34.80;42.00;;;;;;5002649;28;20042;-74
2022/07/20 10:11:33;;;;;;;9.80;5.22;;;35.60;41.10;;;;;;5008201;28;20037;-73
2022/07/20 10:14:01;;;;;;;6.68;4.88;;;35.20;40.20;;;;;;5008609;28;20372;-75
2022/07/20 10:16:28;;;;;;;7.38;5.35;;;35.30;41.30;;;;;;5004523;28;20042;-77
2022/07/20 10:18:56;;;;;;;9.80;8.20;;;35.70;40.80;;;;;;5004069;28;20044;-75
2022/07/20 10:21:34;;;;;;;7.50;6.33;;;35.10;41.60;;;;;;5004952;28;20041;-75
2022/07/20 10:24:19;;;;;;;9.90;5.47;;;34.30;42.10;;;;;;5006084;28;20037;-75
2022/07/20 10:26:47;;;;;;;9.40;6.72;;;34.40;41.60;;;;;;5004109;28;20402;-75
2022/07/20 10:29:27;;;;;;;8.73;6.85;;;34.20;42.10;;;;;;5008110;28;20459;-75
2022/07/20 10:31:57;;;;;;;8.70;5.90;;;34.20;42.00;;;;;;5006699;28;20044;-74
2022/07/20 10:34:42;;;;;;;;;;;34.30;42.40;;;;;;5007030;28;20041;-74
2022/07/20 10:37:17;;;;;;;11.85;6.05;;;34.20;41.70;;;;;;5012846;28;19910;-80
2022/07/20 10:39:45;;;;;;;11.05;5.93;;;34.00;42.60;;;;;;5010935;28;20037;-75
2022/07/20 10:42:48;;;;;;;8.45;5.57;;;34.10;42.80;;;;;;5012441;28;20034;-75
2022/07/20 10:45:17;;;;;;;16.25;5.85;;;34.30;42.20;;;;;;5009454;28;20045;-74
2022/07/20 10:47:44;;;;;;;10.40;6.72;;;34.30;42.30;;;;;;5007528;28;20046;-74
2022/07/20 10:50:19;;;;;;;7.50;5.68;;;34.50;42.30;;;;;;5008329;28;20031;-75
2022/07/20 10:52:46;;;;;;;10.45;6.35;;;34.80;43.10;;;;;;5013378;28;20034;-76
2022/07/20 10:55:37;;;;;;;9.07;5.90;;;34.90;42.20;;;;;;5011018;28;20046;-75
2022/07/20 10:58:25;;;;;;;11.15;6.63;;;34.90;42.10;;;;;;5009392;28;20030;-75
2022/07/20 11:00:53;;;;;;;9.63;6.30;;;34.50;42.30;;;;;;5005619;28;20045;-74
2022/07/20 11:03:22;;;;;;;12.70;6.40;;;34.10;42.60;;;;;;5008929;28;20057;-75
2022/07/20 11:06:08;;;;;;;9.88;6.07;;;34.20;43.30;;;;;;5011028;28;20038;-75
2022/07/20 11:08:36;;;;;;;11.52;6.75;;;34.50;42.30;;;;;;5007795;28;20049;-74
2022/07/20 11:11:03;;;;;;;14.32;7.20;;;34.40;42.30;;;;;;5009914;28;20037;-75
2022/07/20 11:13:29;;;;;;;13.27;6.45;;;34.30;42.30;;;;;;4996002;28;20034;-76
2022/07/20 11:16:00;;;;;;;13.52;6.43;;;34.40;42.80;;;;;;5009285;28;20034;-75
2022/07/20 11:18:32;;;;;;;12.52;6.82;;;34.50;42.40;;;;;;5009642;28;20038;-75
2022/07/20 11:21:06;;;;;;;13.20;7.35;;;34.60;42.80;;;;;;5009514;28;20034;-74
2022/07/20 11:23:48;;;;;;;9.80;6.30;;;34.50;42.40;;;;;;5009872;28;20030;-75
2022/07/20 11:26:19;;;;;;;11.32;6.45;;;34.50;42.70;;;;;;5007724;28;20046;-75
2022/07/20 11:28:51;;;;;;;11.68;6.38;;;34.40;42.70;;;;;;5013059;28;20044;-75
2022/07/20 11:31:20;;;;;;;11.77;6.80;;;34.60;43.00;;;;;;5008429;28;20486;-74
2022/07/20 11:33:48;;;;;;;10.43;6.60;;;35.00;42.20;;;;;;5010711;28;20041;-76
2022/07/20 11:36:20;;;;;;;11.05;7.32;;;34.80;42.50;;;;;;5013835;28;20041;-75
2022/07/20 11:38:49;;;;;;;12.23;7.15;;;34.90;42.80;;;;;;5006882;28;20049;-75
2022/07/20 11:41:28;;;;;;;10.75;7.32;;;34.80;42.40;;;;;;5007698;28;20034;-75
2022/07/20 11:43:55;;;;;;;8.88;6.15;;;34.80;42.30;;;;;;5013323;28;20407;-74
2022/07/20 11:46:26;;;;;;;13.10;7.32;;;34.90;42.70;;;;;;5007707;28;20506;-74
2022/07/20 11:49:03;;;;;;;10.00;6.75;;;35.20;42.60;;;;;;5010247;28;20034;-75
2022/07/20 11:51:31;;;;;;;11.20;7.57;;;35.40;42.30;;;;;;5010608;28;20030;-75
2022/07/20 11:53:58;;;;;;;12.63;7.55;;;35.40;42.20;;;;;;5008186;28;20029;-75
2022/07/20 11:56:27;;;;;;;14.05;7.22;;;35.10;42.70;;;;;;5011282;28;20037;-75
2022/07/20 11:58:55;;;;;;;13.98;7.53;;;35.00;42.10;;;;;;5007495;28;20041;-75
2022/07/20 12:01:25;;;;;;;19.83;7.57;;;34.80;43.50;;;;;;5009054;28;20034;-75
2022/07/20 12:03:58;;;;;;;;;;;35.00;42.50;;;;;;5012913;28;20034;-75
2022/07/20 12:06:27;;;;;;;13.38;7.32;;;35.50;43.20;;;;;;5013077;28;19921;-75
2022/07/20 12:09:14;;;;;;;7.72;6.80;;;35.80;43.10;;;;;;5007071;28;20034;-75
2022/07/20 12:12:00;;;;;;;10.25;7.05;;;36.00;42.90;;;;;;5006200;28;20041;-75
2022/07/20 12:14:33;;;;;;;11.43;6.47;;;36.00;42.80;;;;;;5011049;28;20026;-76
2022/07/20 12:17:20;;;;;;;9.02;6.60;;;36.00;42.20;;;;;;5011469;28;20018;-74
2022/07/20 12:19:49;;;;;;;12.73;7.00;;;36.10;42.60;;;;;;5008002;28;20041;-74
2022/07/20 12:22:21;;;;;;;8.43;6.97;;;36.20;43.40;;;;;;5006097;28;20036;-75
2022/07/20 12:24:58;;;;;;;14.77;7.43;;;36.00;42.00;;;;;;5011749;28;20053;-75
2022/07/20 12:27:27;;;;;;;7.03;6.25;;;35.60;42.20;;;;;;5006162;28;20030;-74
2022/07/20 12:29:54;;;;;;;8.95;7.93;;;35.30;43.30;;;;;;5007764;28;20049;-75
2022/07/20 12:32:34;;;;;;;11.80;7.72;;;35.60;43.60;;;;;;5008770;28;20451;-75
2022/07/20 12:35:05;;;;;;;14.75;7.28;;;36.00;42.30;;;;;;5009239;28;20038;-75
2022/07/20 12:37:58;;;;;;;10.18;7.07;;;35.90;42.20;;;;;;5010904;28;20467;-74
2022/07/20 12:40:44;;;;;;;11.95;8.30;;;35.60;42.50;;;;;;5009009;28;20045;-74
2022/07/20 12:43:36;;;;;;;10.13;6.75;;;35.50;42.70;;;;;;5010195;28;20034;-74
2022/07/20 12:46:11;;;;;;;14.38;7.85;;;36.20;43.10;;;;;;5004097;28;20054;-74
2022/07/20 12:48:39;;;;;;;14.13;7.53;;;36.60;43.00;;;;;;5004316;28;20448;-73
2022/07/20 12:51:07;;;;;;;14.25;7.97;;;36.80;42.60;;;;;;5010457;28;20025;-74
2022/07/20 12:53:35;;;;;;;8.77;7.60;;;37.00;42.30;;;;;;5011560;28;20523;-73
2022/07/20 12:56:02;;;;;;;11.02;7.55;;;37.10;42.40;;;;;;5005677;28;20037;-73